createdAt,value
2022-12-04T00:01:11.550Z,3.03
2022-12-04T00:03:38.418Z,2.82
2022-12-04T00:06:07.845Z,2.48
2022-12-04T00:08:34.631Z,2.64
2022-12-04T00:11:01.773Z,2.58
2022-12-04T00:13:28.435Z,2.41
2022-12-04T00:15:55.074Z,2.26
2022-12-04T00:18:22.299Z,2.10
2022-12-04T00:20:49.203Z,1.95
2022-12-04T00:23:15.790Z,1.91
2022-12-04T00:25:42.675Z,1.98
2022-12-04T00:28:09.700Z,1.91
2022-12-04T00:30:41.331Z,2.02
2022-12-04T00:33:07.934Z,1.87
2022-12-04T00:35:34.518Z,1.83
2022-12-04T00:38:01.085Z,1.84
2022-12-04T00:40:27.683Z,2.05
2022-12-04T00:42:54.290Z,2.20
2022-12-04T00:45:20.879Z,2.34
2022-12-04T00:47:47.438Z,2.38
2022-12-04T00:50:14.087Z,2.50
2022-12-04T00:52:40.774Z,2.21
2022-12-04T00:55:08.011Z,2.03
2022-12-04T00:57:34.580Z,2.06
2022-12-04T01:00:01.183Z,2.09
2022-12-04T01:02:27.857Z,2.27
2022-12-04T01:04:54.445Z,2.37
2022-12-04T01:07:21.022Z,2.62
2022-12-04T01:09:47.610Z,2.80
2022-12-04T01:12:20.341Z,2.96
2022-12-04T01:14:47.446Z,3.08
2022-12-04T01:17:14.224Z,3.07
2022-12-04T01:19:41.118Z,3.20
2022-12-04T01:22:07.870Z,3.22
2022-12-04T01:24:34.490Z,3.30
2022-12-04T01:27:01.080Z,3.28
2022-12-04T01:29:27.673Z,3.26
2022-12-04T01:31:54.321Z,3.33
2022-12-04T01:34:20.959Z,3.39
2022-12-04T01:36:48.422Z,3.45
2022-12-04T01:39:15.019Z,3.22
2022-12-04T01:41:41.756Z,3.12
2022-12-04T01:44:09.897Z,3.07
2022-12-04T01:46:36.642Z,3.09
2022-12-04T01:49:06.919Z,3.09
2022-12-04T01:51:37.961Z,2.99
2022-12-04T01:54:09.080Z,2.83
2022-12-04T01:56:44.933Z,2.78
2022-12-04T01:59:14.338Z,2.95
2022-12-04T02:01:50.120Z,2.84
2022-12-04T02:04:16.778Z,3.12
2022-12-04T02:06:43.389Z,2.96
2022-12-04T02:09:10.071Z,2.99
2022-12-04T02:12:15.983Z,3.11
2022-12-04T02:14:47.540Z,2.82
2022-12-04T02:17:26.443Z,3.03
2022-12-04T02:20:11.154Z,2.99
2022-12-04T02:22:52.642Z,3.14
2022-12-04T02:26:10.231Z,3.22
2022-12-04T02:28:45.701Z,3.14
2022-12-04T02:31:19.110Z,3.24
2022-12-04T02:33:54.206Z,3.19
2022-12-04T02:36:29.176Z,2.97
2022-12-04T02:39:04.847Z,2.74
2022-12-04T02:41:35.972Z,2.63
2022-12-04T02:44:10.854Z,2.63
2022-12-04T02:46:42.517Z,2.41
2022-12-04T02:49:16.501Z,2.64
2022-12-04T02:51:46.291Z,2.92
2022-12-04T02:54:36.363Z,2.85
2022-12-04T02:57:07.251Z,2.86
2022-12-04T02:59:38.098Z,2.99
2022-12-04T03:02:13.593Z,2.91
2022-12-04T03:04:42.547Z,2.93
2022-12-04T03:07:16.558Z,3.08
2022-12-04T03:09:55.125Z,3.16
2022-12-04T03:12:36.710Z,3.17
2022-12-04T03:15:20.110Z,3.27
2022-12-04T03:17:56.126Z,3.38
2022-12-04T03:20:24.027Z,3.15
2022-12-04T03:22:58.206Z,3.28
2022-12-04T03:25:34.823Z,3.29
2022-12-04T03:28:07.419Z,3.26
2022-12-04T03:30:52.590Z,3.16
2022-12-04T03:33:25.726Z,3.31
2022-12-04T03:35:52.168Z,3.31
2022-12-04T03:38:44.845Z,3.19
2022-12-04T03:41:15.225Z,3.23
2022-12-04T03:44:00.142Z,3.31
2022-12-04T03:46:35.575Z,3.15
2022-12-04T03:49:26.332Z,3.30
2022-12-04T03:52:00.134Z,3.22
2022-12-04T03:54:38.673Z,3.21
2022-12-04T03:57:14.237Z,3.20
2022-12-04T03:59:55.277Z,3.27
2022-12-04T04:02:26.075Z,2.86
2022-12-04T04:04:57.233Z,2.90
2022-12-04T04:07:35.153Z,2.80
2022-12-04T04:10:10.937Z,3.09
2022-12-04T04:12:44.494Z,3.02
2022-12-04T04:15:35.552Z,2.90
2022-12-04T04:18:21.334Z,2.76
2022-12-04T04:21:12.759Z,2.82
2022-12-04T04:24:08.442Z,2.79
2022-12-04T04:26:40.533Z,2.63
2022-12-04T04:29:08.395Z,2.47
2022-12-04T04:31:55.557Z,2.46
2022-12-04T04:34:32.598Z,2.51
2022-12-04T04:37:22.195Z,2.55
2022-12-04T04:39:57.562Z,2.54
2022-12-04T04:42:37.675Z,2.74
2022-12-04T04:45:16.692Z,2.86
2022-12-04T04:48:04.586Z,2.80
2022-12-04T04:50:33.270Z,2.96
2022-12-04T04:53:08.256Z,3.02
2022-12-04T04:55:36.226Z,2.99
2022-12-04T04:58:15.370Z,3.02
2022-12-04T05:00:53.120Z,2.83
2022-12-04T05:03:19.748Z,2.76
2022-12-04T05:05:46.366Z,2.80
2022-12-04T05:08:13.008Z,2.67
2022-12-04T05:10:39.625Z,2.86
2022-12-04T05:13:09.412Z,3.02
2022-12-04T05:15:36.209Z,3.08
2022-12-04T05:18:02.975Z,2.79
2022-12-04T05:20:29.781Z,2.74
2022-12-04T05:22:56.364Z,2.61
2022-12-04T05:25:23.185Z,2.49
2022-12-04T05:27:49.794Z,2.67
2022-12-04T05:30:16.593Z,2.48
2022-12-04T05:32:43.337Z,2.32
2022-12-04T05:35:11.510Z,2.46
2022-12-04T05:37:40.626Z,2.51
2022-12-04T05:40:08.134Z,2.50
2022-12-04T05:42:34.896Z,2.59
2022-12-04T05:45:01.506Z,2.59
2022-12-04T05:47:28.169Z,2.61
2022-12-04T05:49:55.016Z,2.58
2022-12-04T05:52:21.938Z,2.81
2022-12-04T05:54:48.505Z,2.85
2022-12-04T05:57:15.114Z,2.88
2022-12-04T05:59:41.722Z,2.74
2022-12-04T06:02:08.452Z,2.58
2022-12-04T06:04:37.088Z,2.33
2022-12-04T06:07:03.935Z,2.37
2022-12-04T06:09:30.512Z,2.01
2022-12-04T06:11:59.126Z,2.02
2022-12-04T06:14:26.025Z,2.13
2022-12-04T06:16:52.828Z,2.41
2022-12-04T06:19:21.322Z,2.15
2022-12-04T06:21:50.772Z,2.22
2022-12-04T06:24:21.705Z,2.31
2022-12-04T06:27:18.807Z,2.43
2022-12-04T06:29:35.854Z,2.33
2022-12-04T06:32:02.924Z,2.31
2022-12-04T06:34:29.760Z,2.22
2022-12-04T06:36:56.326Z,2.07
2022-12-04T06:39:23.009Z,1.91
2022-12-04T06:41:49.589Z,1.94
2022-12-04T06:44:16.645Z,2.23
2022-12-04T06:46:46.790Z,2.29
2022-12-04T06:49:14.237Z,2.17
2022-12-04T06:51:41.019Z,2.07
2022-12-04T06:54:07.970Z,1.92
2022-12-04T06:56:34.994Z,1.65
2022-12-04T06:59:03.882Z,1.60
2022-12-04T07:01:33.164Z,1.50
2022-12-04T07:04:01.244Z,1.32
2022-12-04T07:06:30.484Z,1.69
2022-12-04T07:09:17.411Z,1.79
2022-12-04T07:11:44.890Z,1.95
2022-12-04T07:14:12.385Z,2.06
2022-12-04T07:16:42.023Z,2.13
2022-12-04T07:19:10.634Z,2.08
2022-12-04T07:21:37.289Z,2.30
2022-12-04T07:24:04.237Z,2.26
2022-12-04T07:26:31.441Z,2.39
2022-12-04T07:28:59.282Z,2.29
2022-12-04T07:31:27.637Z,1.98
2022-12-04T07:33:56.225Z,2.24
2022-12-04T07:36:24.008Z,2.09
2022-12-04T07:38:51.253Z,2.12
2022-12-04T07:41:20.581Z,2.21
2022-12-04T07:43:47.533Z,2.27
2022-12-04T07:46:17.943Z,2.39
2022-12-04T07:48:44.637Z,2.43
2022-12-04T07:51:14.159Z,2.49
2022-12-04T07:53:42.101Z,2.47
2022-12-04T07:56:09.957Z,2.64
2022-12-04T07:58:36.586Z,2.68
2022-12-04T08:01:11.238Z,2.67
2022-12-04T08:03:43.551Z,2.82
2022-12-04T08:06:13.678Z,2.72
2022-12-04T08:08:40.315Z,2.87
2022-12-04T08:11:08.948Z,2.88
2022-12-04T08:13:36.082Z,2.94
2022-12-04T08:16:07.397Z,2.69
2022-12-04T08:18:34.216Z,2.90
2022-12-04T08:21:06.174Z,2.77
2022-12-04T08:23:33.010Z,2.83
2022-12-04T08:26:01.005Z,2.82
2022-12-04T08:28:28.372Z,2.82
2022-12-04T08:30:55.383Z,3.00
2022-12-04T08:33:22.127Z,3.07
2022-12-04T08:35:48.806Z,3.15
2022-12-04T08:38:15.416Z,3.44
2022-12-04T08:40:42.069Z,3.59
2022-12-04T08:43:08.625Z,3.34
2022-12-04T08:45:35.237Z,3.28
2022-12-04T08:48:02.273Z,3.44
2022-12-04T08:50:28.929Z,3.66
2022-12-04T08:52:55.521Z,3.82
2022-12-04T08:55:22.252Z,4.00
2022-12-04T08:57:51.369Z,4.01
2022-12-04T09:00:18.802Z,4.26
2022-12-04T09:02:48.390Z,4.25
2022-12-04T09:05:14.965Z,3.92
2022-12-04T09:07:41.610Z,4.47
2022-12-04T09:10:08.809Z,4.69
2022-12-04T09:12:35.397Z,4.81
2022-12-04T09:15:02.245Z,4.90
2022-12-04T09:17:28.854Z,5.10
2022-12-04T09:20:00.517Z,5.35
2022-12-04T09:22:36.246Z,5.39
2022-12-04T09:25:14.282Z,5.34
2022-12-04T09:27:44.996Z,5.43
2022-12-04T09:30:12.695Z,5.50
2022-12-04T09:32:39.481Z,5.56
2022-12-04T09:35:06.839Z,5.55
2022-12-04T09:37:33.785Z,5.45
2022-12-04T09:40:00.349Z,5.70
2022-12-04T09:42:45.545Z,5.63
2022-12-04T09:45:17.170Z,5.66
2022-12-04T09:47:47.526Z,5.46
2022-12-04T09:50:36.049Z,5.48
2022-12-04T09:53:10.483Z,5.52
2022-12-04T09:55:58.498Z,5.59
2022-12-04T09:58:38.087Z,5.21
2022-12-04T10:01:05.654Z,5.43
2022-12-04T10:03:32.553Z,5.58
2022-12-04T10:06:23.114Z,5.28
2022-12-04T10:09:20.940Z,5.33
2022-12-04T10:12:26.053Z,5.33
2022-12-04T10:15:16.934Z,5.28
2022-12-04T10:18:14.125Z,5.55
2022-12-04T10:20:55.931Z,5.42
2022-12-04T10:23:27.894Z,5.35
2022-12-04T10:25:55.258Z,5.44
2022-12-04T10:28:32.614Z,5.27
2022-12-04T10:31:04.045Z,5.40
2022-12-04T10:33:45.505Z,5.39
2022-12-04T10:36:17.423Z,5.49
2022-12-04T10:38:55.762Z,5.37
2022-12-04T10:41:28.438Z,5.39
2022-12-04T10:43:55.333Z,5.45
2022-12-04T10:46:27.971Z,5.52
2022-12-04T10:49:12.397Z,5.40
2022-12-04T10:51:41.495Z,5.35
2022-12-04T10:54:34.395Z,5.51
2022-12-04T10:57:04.520Z,5.60
2022-12-04T10:59:32.110Z,5.65
2022-12-04T11:02:15.019Z,5.57
2022-12-04T11:04:42.083Z,5.71
2022-12-04T11:07:19.383Z,5.44
2022-12-04T11:10:05.995Z,5.15
2022-12-04T11:12:33.779Z,5.15
2022-12-04T11:15:07.931Z,5.35
2022-12-04T11:17:34.645Z,5.45
2022-12-04T11:20:15.806Z,5.53
2022-12-04T11:22:52.475Z,5.66
2022-12-04T11:25:21.256Z,5.62
2022-12-04T11:27:52.098Z,5.83
2022-12-04T11:30:52.641Z,5.66
2022-12-04T11:33:28.897Z,5.35
2022-12-04T11:35:59.383Z,5.40
2022-12-04T11:38:29.124Z,5.54
2022-12-04T11:40:58.590Z,5.72
2022-12-04T11:43:28.565Z,5.72
2022-12-04T11:45:55.477Z,5.82
2022-12-04T11:48:22.615Z,5.83
2022-12-04T11:51:04.096Z,5.76
2022-12-04T11:53:39.771Z,5.79
2022-12-04T11:56:13.305Z,5.86
2022-12-04T11:59:01.700Z,5.83
2022-12-04T12:01:28.222Z,5.85
2022-12-04T12:04:19.469Z,5.98
2022-12-04T12:06:55.265Z,6.14
2022-12-04T12:09:39.868Z,6.25
2022-12-04T12:12:18.456Z,6.07
2022-12-04T12:15:00.322Z,6.10
2022-12-04T12:17:52.925Z,6.15
2022-12-04T12:20:57.171Z,6.27
2022-12-04T12:23:46.290Z,6.30
2022-12-04T12:26:15.463Z,6.26
2022-12-04T12:29:00.302Z,6.18
2022-12-04T12:31:45.762Z,6.28
2022-12-04T12:34:34.333Z,6.23
2022-12-04T12:37:09.345Z,6.24
2022-12-04T12:39:40.507Z,6.22
2022-12-04T12:42:15.370Z,6.13
2022-12-04T12:45:03.508Z,6.38
2022-12-04T12:47:42.434Z,6.32
2022-12-04T12:50:21.254Z,5.97
2022-12-04T12:52:58.094Z,6.09
2022-12-04T12:55:30.820Z,6.22
2022-12-04T12:58:15.626Z,5.80
2022-12-04T13:00:55.343Z,5.78
2022-12-04T13:03:29.934Z,5.83
2022-12-04T13:06:03.719Z,5.69
2022-12-04T13:08:49.461Z,6.01
2022-12-04T13:11:23.090Z,6.32
2022-12-04T13:13:55.743Z,6.37
2022-12-04T13:16:44.949Z,6.70
2022-12-04T13:19:26.802Z,6.90
2022-12-04T13:22:38.236Z,7.26
2022-12-04T13:25:16.934Z,7.13
2022-12-04T13:27:52.282Z,7.16
2022-12-04T13:30:21.909Z,7.41
2022-12-04T13:33:16.340Z,7.52
2022-12-04T13:35:42.889Z,7.49
2022-12-04T13:38:40.171Z,7.45
2022-12-04T13:41:11.213Z,7.62
2022-12-04T13:43:40.896Z,7.52
2022-12-04T13:46:34.190Z,7.76
2022-12-04T13:49:08.466Z,7.77
2022-12-04T13:51:37.576Z,7.83
2022-12-04T13:54:23.506Z,8.04
2022-12-04T13:56:56.017Z,8.03
2022-12-04T13:59:28.420Z,8.29
2022-12-04T14:02:06.425Z,8.34
2022-12-04T14:04:46.744Z,8.53
2022-12-04T14:07:25.991Z,8.59
2022-12-04T14:09:54.575Z,8.87
2022-12-04T14:12:28.319Z,8.94
2022-12-04T14:15:00.187Z,8.23
2022-12-04T14:17:33.697Z,8.59
2022-12-04T14:20:07.864Z,8.72
2022-12-04T14:22:37.763Z,8.77
2022-12-04T14:25:13.629Z,8.68
2022-12-04T14:27:43.187Z,8.87
2022-12-04T14:30:21.845Z,8.67
2022-12-04T14:32:52.568Z,8.35
2022-12-04T14:35:28.294Z,8.37
2022-12-04T14:38:01.847Z,8.82
2022-12-04T14:40:43.636Z,8.85
2022-12-04T14:43:38.857Z,8.75
2022-12-04T14:46:20.419Z,8.89
2022-12-04T14:49:23.712Z,8.97
2022-12-04T14:52:15.173Z,8.72
2022-12-04T14:54:50.745Z,8.97
2022-12-04T14:57:39.014Z,8.80
2022-12-04T15:00:15.977Z,8.72
2022-12-04T15:02:45.769Z,8.79
2022-12-04T15:05:28.360Z,8.94
2022-12-04T15:08:01.316Z,8.72
2022-12-04T15:10:51.917Z,8.75
2022-12-04T15:13:30.319Z,8.79
2022-12-04T15:15:57.422Z,8.67
2022-12-04T15:18:24.270Z,8.51
2022-12-04T15:20:53.964Z,8.42
2022-12-04T15:23:36.056Z,8.01
2022-12-04T15:26:15.376Z,8.15
2022-12-04T15:28:49.336Z,8.02
2022-12-04T15:31:22.796Z,7.94
2022-12-04T15:33:53.296Z,8.07
2022-12-04T15:36:39.326Z,7.93
2022-12-04T15:39:06.405Z,7.39
2022-12-04T15:41:35.973Z,7.18
2022-12-04T15:44:21.689Z,7.26
2022-12-04T15:46:48.360Z,7.47
2022-12-04T15:49:20.071Z,7.67
2022-12-04T15:51:47.960Z,7.61
2022-12-04T15:54:24.746Z,7.13
2022-12-04T15:57:02.489Z,7.09
2022-12-04T15:59:30.233Z,6.49
2022-12-04T16:02:05.171Z,6.35
2022-12-04T16:04:35.592Z,6.14
2022-12-04T16:07:02.797Z,6.04
2022-12-04T16:09:29.486Z,5.99
2022-12-04T16:12:02.051Z,5.96
2022-12-04T16:14:28.985Z,6.03
2022-12-04T16:17:05.595Z,5.81
2022-12-04T16:19:38.725Z,5.79
2022-12-04T16:22:13.137Z,5.47
2022-12-04T16:24:39.952Z,5.55
2022-12-04T16:27:14.931Z,5.53
2022-12-04T16:29:41.634Z,5.38
2022-12-04T16:32:13.158Z,5.31
2022-12-04T16:34:40.256Z,5.19
2022-12-04T16:37:15.987Z,5.08
2022-12-04T16:39:42.842Z,5.07
2022-12-04T16:42:29.933Z,5.09
2022-12-04T16:44:56.864Z,5.22
2022-12-04T16:47:23.827Z,5.18
2022-12-04T16:49:51.798Z,5.04
2022-12-04T16:52:19.007Z,4.85
2022-12-04T16:54:46.133Z,4.89
2022-12-04T16:57:12.704Z,4.84
2022-12-04T16:59:39.414Z,4.94
2022-12-04T17:02:15.629Z,4.85
2022-12-04T17:04:42.442Z,4.86
2022-12-04T17:07:09.043Z,4.83
2022-12-04T17:09:35.654Z,4.92
2022-12-04T17:12:02.213Z,5.12
2022-12-04T17:14:28.814Z,5.17
2022-12-04T17:16:56.474Z,5.27
2022-12-04T17:19:23.101Z,5.39
2022-12-04T17:21:49.690Z,5.53
2022-12-04T17:24:16.305Z,5.44
2022-12-04T17:26:42.873Z,5.56
2022-12-04T17:29:09.481Z,5.60
2022-12-04T17:31:36.148Z,5.65
2022-12-04T17:34:02.771Z,5.52
2022-12-04T17:36:29.369Z,5.58
2022-12-04T17:38:58.709Z,5.43
2022-12-04T17:41:25.397Z,5.26
2022-12-04T17:43:51.974Z,5.31
2022-12-04T17:46:21.805Z,5.07
2022-12-04T17:48:49.148Z,5.15
2022-12-04T17:51:21.780Z,5.17
2022-12-04T17:53:49.169Z,5.30
2022-12-04T17:56:19.540Z,5.40
2022-12-04T17:58:47.023Z,4.90
2022-12-04T18:01:19.867Z,4.54
2022-12-04T18:03:51.333Z,4.22
2022-12-04T18:06:24.949Z,4.07
2022-12-04T18:08:51.945Z,4.36
2022-12-04T18:11:23.935Z,4.55
2022-12-04T18:13:58.526Z,4.81
2022-12-04T18:16:26.293Z,4.99
2022-12-04T18:18:54.299Z,5.13
2022-12-04T18:21:20.864Z,5.16
2022-12-04T18:23:47.749Z,5.21
2022-12-04T18:26:17.969Z,5.32
2022-12-04T18:28:45.398Z,5.35
2022-12-04T18:31:13.622Z,5.46
2022-12-04T18:33:42.335Z,5.04
2022-12-04T18:36:14.882Z,5.31
2022-12-04T18:38:41.495Z,5.36
2022-12-04T18:41:10.893Z,5.45
2022-12-04T18:43:44.498Z,5.50
2022-12-04T18:46:16.400Z,5.63
2022-12-04T18:48:44.549Z,5.70
2022-12-04T18:51:21.082Z,5.05
2022-12-04T18:53:49.626Z,5.31
2022-12-04T18:56:17.481Z,5.31
2022-12-04T18:58:46.441Z,5.44
2022-12-04T19:01:18.372Z,5.61
2022-12-04T19:03:47.037Z,5.49
2022-12-04T19:06:14.748Z,5.10
2022-12-04T19:08:43.524Z,4.73
2022-12-04T19:11:15.654Z,4.74
2022-12-04T19:13:42.750Z,4.66
2022-12-04T19:16:14.160Z,4.42
2022-12-04T19:18:42.317Z,4.30
2022-12-04T19:21:09.336Z,4.14
2022-12-04T19:23:36.043Z,4.26
2022-12-04T19:26:03.097Z,4.11
2022-12-04T19:28:29.760Z,4.01
2022-12-04T19:30:56.755Z,4.25
2022-12-04T19:33:24.917Z,4.38
2022-12-04T19:36:05.367Z,4.48
2022-12-04T19:38:33.202Z,4.34
2022-12-04T19:41:14.617Z,4.52
2022-12-04T19:43:44.039Z,4.61
2022-12-04T19:46:13.340Z,4.45
2022-12-04T19:48:40.351Z,4.35
2022-12-04T19:51:15.541Z,4.27
2022-12-04T19:53:43.106Z,4.19
2022-12-04T19:56:15.939Z,4.31
2022-12-04T19:58:43.192Z,4.39
2022-12-04T20:01:13.198Z,4.54
2022-12-04T20:03:40.054Z,4.59
2022-12-04T20:06:11.900Z,4.53
2022-12-04T20:08:39.091Z,4.45
2022-12-04T20:11:08.473Z,4.29
2022-12-04T20:13:36.407Z,4.33
2022-12-04T20:16:04.373Z,4.44
2022-12-04T20:18:31.190Z,4.29
2022-12-04T20:20:59.816Z,4.27
2022-12-04T20:23:27.006Z,4.47
2022-12-04T20:25:54.234Z,4.59
2022-12-04T20:28:21.555Z,4.70
2022-12-04T20:30:49.923Z,4.65
2022-12-04T20:33:16.647Z,4.67
2022-12-04T20:35:43.298Z,4.60
2022-12-04T20:38:09.898Z,4.78
2022-12-04T20:40:36.554Z,4.76
2022-12-04T20:43:03.239Z,4.77
2022-12-04T20:45:30.575Z,4.88
2022-12-04T20:47:57.426Z,5.08
2022-12-04T20:50:24.598Z,4.84
2022-12-04T20:52:51.238Z,4.94
2022-12-04T20:55:18.208Z,4.99
2022-12-04T20:57:44.843Z,4.78
2022-12-04T21:00:11.962Z,4.47
2022-12-04T21:02:38.659Z,4.44
2022-12-04T21:05:05.670Z,4.51
2022-12-04T21:07:32.332Z,4.49
2022-12-04T21:09:59.539Z,4.08
2022-12-04T21:12:44.681Z,3.96
2022-12-04T21:15:29.717Z,3.85
2022-12-04T21:17:56.301Z,3.96
2022-12-04T21:20:24.208Z,3.90
2022-12-04T21:22:50.769Z,3.85
2022-12-04T21:25:17.674Z,3.88
2022-12-04T21:27:44.445Z,3.70
2022-12-04T21:30:11.463Z,3.75
2022-12-04T21:32:38.046Z,3.78
2022-12-04T21:35:05.061Z,3.77
2022-12-04T21:37:31.698Z,3.73
2022-12-04T21:39:59.609Z,3.84
2022-12-04T21:42:30.268Z,3.83
2022-12-04T21:44:58.398Z,3.93
2022-12-04T21:47:26.059Z,3.94
2022-12-04T21:49:52.642Z,4.20
2022-12-04T21:52:19.586Z,4.38
2022-12-04T21:54:50.122Z,4.49
2022-12-04T21:57:16.742Z,4.62
2022-12-04T21:59:43.440Z,4.63
2022-12-04T22:02:14.293Z,4.57
2022-12-04T22:04:41.581Z,4.57
2022-12-04T22:07:08.372Z,4.59
2022-12-04T22:09:36.390Z,4.49
2022-12-04T22:12:14.647Z,4.58
2022-12-04T22:14:49.721Z,4.58
2022-12-04T22:17:16.325Z,4.67
2022-12-04T22:19:42.915Z,4.57
2022-12-04T22:22:09.466Z,4.67
2022-12-04T22:24:36.065Z,4.71
2022-12-04T22:27:02.646Z,4.90
2022-12-04T22:32:15.847Z,4.76
2022-12-04T22:34:42.439Z,4.73
2022-12-04T22:37:09.029Z,4.60
2022-12-04T22:39:35.678Z,4.52
2022-12-04T22:42:02.242Z,4.57
2022-12-04T22:44:28.821Z,4.69
2022-12-04T22:46:55.477Z,4.53
2022-12-04T22:49:22.165Z,4.33
2022-12-04T22:51:48.731Z,4.30
2022-12-04T22:54:15.470Z,4.46
2022-12-04T22:56:44.168Z,4.46
2022-12-04T22:59:10.781Z,4.49
2022-12-04T23:01:37.362Z,4.53
2022-12-04T23:04:04.184Z,4.53
2022-12-04T23:06:32.624Z,4.58
2022-12-04T23:09:06.236Z,4.49
2022-12-04T23:11:33.184Z,4.49
2022-12-04T23:14:03.191Z,4.46
2022-12-04T23:16:31.921Z,4.49
2022-12-04T23:18:58.920Z,4.42
2022-12-04T23:21:26.376Z,4.32
2022-12-04T23:23:54.470Z,4.47
2022-12-04T23:26:24.889Z,4.46
2022-12-04T23:28:51.684Z,4.43
2022-12-04T23:31:19.233Z,4.43
2022-12-04T23:33:46.088Z,4.45
2022-12-04T23:36:13.722Z,4.52
2022-12-04T23:38:41.717Z,4.40
2022-12-04T23:41:11.642Z,4.46
2022-12-04T23:43:39.022Z,4.59
2022-12-04T23:46:10.985Z,4.55
2022-12-04T23:48:39.590Z,4.46
2022-12-04T23:51:07.166Z,4.63
2022-12-04T23:53:33.971Z,4.83
2022-12-04T23:56:06.489Z,4.91
2022-12-04T23:58:34.163Z,4.76
